createdAt,value
2023-02-06T00:01:35.402Z,40.77
2023-02-06T00:04:02.431Z,39.50
2023-02-06T00:06:29.260Z,38.73
2023-02-06T00:08:56.257Z,39.07
2023-02-06T00:11:23.472Z,39.77
2023-02-06T00:13:50.878Z,43.80
2023-02-06T00:16:22.346Z,45.50
2023-02-06T00:18:49.729Z,57.80
2023-02-06T00:21:20.294Z,54.87
2023-02-06T00:23:47.544Z,58.00
2023-02-06T00:26:14.795Z,57.03
2023-02-06T00:28:41.590Z,54.93
2023-02-06T00:31:09.462Z,51.17
2023-02-06T00:33:36.644Z,53.00
2023-02-06T00:36:03.998Z,48.33
2023-02-06T00:38:31.500Z,54.57
2023-02-06T00:40:58.544Z,54.53
2023-02-06T00:43:25.466Z,58.10
2023-02-06T00:45:56.349Z,70.87
2023-02-06T00:48:24.821Z,68.33
2023-02-06T00:50:52.999Z,66.43
2023-02-06T00:53:20.686Z,59.67
2023-02-06T00:55:47.614Z,56.07
2023-02-06T00:58:14.599Z,56.17
2023-02-06T01:00:41.453Z,55.57
2023-02-06T01:03:08.378Z,50.93
2023-02-06T01:05:35.515Z,50.87
2023-02-06T01:08:04.430Z,53.77
2023-02-06T01:10:31.840Z,49.40
2023-02-06T01:12:58.729Z,52.00
2023-02-06T01:15:25.926Z,50.90
2023-02-06T01:17:52.834Z,46.87
2023-02-06T01:20:19.835Z,50.87
2023-02-06T01:22:46.694Z,47.10
2023-02-06T01:25:13.687Z,45.93
2023-02-06T01:27:40.656Z,47.80
2023-02-06T01:30:08.269Z,46.93
2023-02-06T01:32:39.409Z,46.63
2023-02-06T01:35:08.163Z,46.53
2023-02-06T01:37:36.673Z,47.10
2023-02-06T01:40:05.861Z,45.30
2023-02-06T01:42:38.054Z,44.77
2023-02-06T01:45:43.826Z,42.70
2023-02-06T01:48:15.024Z,45.90
2023-02-06T01:50:46.350Z,51.33
2023-02-06T01:53:16.717Z,49.47
2023-02-06T01:55:45.690Z,51.47
2023-02-06T01:58:18.087Z,53.57
2023-02-06T02:00:45.661Z,52.70
2023-02-06T02:03:12.907Z,52.47
2023-02-06T02:05:42.186Z,50.50
2023-02-06T02:08:16.528Z,51.43
2023-02-06T02:10:43.847Z,50.40
2023-02-06T02:13:10.698Z,46.10
2023-02-06T02:15:47.051Z,48.50
2023-02-06T02:18:24.475Z,46.93
2023-02-06T02:20:59.999Z,44.10
2023-02-06T02:23:49.465Z,43.47
2023-02-06T02:26:45.176Z,38.07
2023-02-06T02:29:32.911Z,33.53
2023-02-06T02:32:28.229Z,31.10
2023-02-06T02:35:15.201Z,27.37
2023-02-06T02:37:56.807Z,27.97
2023-02-06T02:40:49.056Z,25.03
2023-02-06T02:43:22.971Z,25.33
2023-02-06T02:46:00.378Z,27.27
2023-02-06T02:48:38.485Z,26.60
2023-02-06T02:51:06.149Z,27.00
2023-02-06T02:53:33.052Z,25.43
2023-02-06T02:56:00.273Z,27.37
2023-02-06T02:58:33.635Z,33.10
2023-02-06T03:01:09.082Z,33.60
2023-02-06T03:03:39.644Z,35.37
2023-02-06T03:06:30.902Z,33.03
2023-02-06T03:09:03.869Z,33.30
2023-02-06T03:11:30.958Z,39.43
2023-02-06T03:14:01.554Z,36.57
2023-02-06T03:17:17.862Z,36.33
2023-02-06T03:19:53.476Z,35.80
2023-02-06T03:22:21.398Z,41.00
2023-02-06T03:24:51.382Z,44.87
2023-02-06T03:27:20.159Z,47.93
2023-02-06T03:29:49.206Z,45.13
2023-02-06T03:32:24.111Z,42.50
2023-02-06T03:34:57.642Z,41.23
2023-02-06T03:37:25.256Z,40.37
2023-02-06T03:39:52.286Z,42.23
2023-02-06T03:42:20.868Z,42.60
2023-02-06T03:45:01.680Z,41.80
2023-02-06T03:47:30.586Z,40.30
2023-02-06T03:50:00.342Z,40.60
2023-02-06T03:52:33.887Z,40.23
2023-02-06T03:55:12.424Z,38.53
2023-02-06T03:57:41.916Z,39.63
2023-02-06T04:00:09.574Z,40.97
2023-02-06T04:02:37.207Z,44.23
2023-02-06T04:05:04.275Z,43.27
2023-02-06T04:07:33.266Z,42.87
2023-02-06T04:10:00.119Z,38.13
2023-02-06T04:12:28.120Z,39.63
2023-02-06T04:14:54.964Z,36.27
2023-02-06T04:17:40.645Z,37.40
2023-02-06T04:20:09.453Z,35.13
2023-02-06T04:22:36.341Z,37.07
2023-02-06T04:25:03.281Z,50.67
2023-02-06T04:27:30.144Z,104.67
2023-02-06T04:29:56.961Z,142.70
2023-02-06T04:32:24.057Z,64.30
2023-02-06T04:34:51.083Z,55.87
2023-02-06T04:37:17.907Z,50.03
2023-02-06T04:39:44.756Z,46.97
2023-02-06T04:42:11.590Z,43.93
2023-02-06T04:44:38.599Z,43.37
2023-02-06T04:47:05.690Z,41.93
2023-02-06T04:49:32.733Z,39.80
2023-02-06T04:51:59.807Z,39.87
2023-02-06T04:54:26.693Z,41.20
2023-02-06T04:56:53.538Z,37.93
2023-02-06T04:59:20.370Z,40.23
2023-02-06T05:01:47.355Z,39.43
2023-02-06T05:04:14.211Z,39.90
2023-02-06T05:06:41.125Z,40.03
2023-02-06T05:09:08.258Z,42.30
2023-02-06T05:11:35.178Z,44.77
2023-02-06T05:14:02.027Z,47.73
2023-02-06T05:16:28.909Z,49.07
2023-02-06T05:18:57.220Z,52.80
2023-02-06T05:21:25.453Z,49.10
2023-02-06T05:23:52.489Z,54.63
2023-02-06T05:26:19.932Z,59.43
2023-02-06T05:28:47.475Z,57.17
2023-02-06T05:31:19.733Z,57.47
2023-02-06T05:33:51.089Z,55.37
2023-02-06T05:36:20.146Z,55.80
2023-02-06T05:38:48.091Z,55.60
2023-02-06T05:41:15.795Z,51.53
2023-02-06T05:43:43.026Z,50.77
2023-02-06T05:46:11.347Z,46.80
2023-02-06T05:48:38.628Z,45.77
2023-02-06T05:51:05.722Z,45.23
2023-02-06T05:53:32.658Z,43.50
2023-02-06T05:55:59.545Z,43.73
2023-02-06T05:58:26.504Z,41.57
2023-02-06T06:00:53.342Z,42.90
2023-02-06T06:03:20.235Z,41.93
2023-02-06T06:05:47.287Z,41.93
2023-02-06T06:08:15.119Z,39.17
2023-02-06T06:10:42.172Z,41.20
2023-02-06T06:13:09.175Z,37.97
2023-02-06T06:15:36.444Z,38.57
2023-02-06T06:18:03.951Z,36.67
2023-02-06T06:20:30.836Z,39.30
2023-02-06T06:22:57.669Z,65.30
2023-02-06T06:25:24.535Z,106.87
2023-02-06T06:27:51.426Z,114.73
2023-02-06T06:30:18.474Z,89.77
2023-02-06T06:32:45.334Z,59.20
2023-02-06T06:35:12.199Z,50.23
2023-02-06T06:37:39.030Z,59.03
2023-02-06T06:40:06.143Z,74.67
2023-02-06T06:42:32.981Z,86.57
2023-02-06T06:44:59.866Z,89.80
2023-02-06T06:47:26.778Z,61.50
2023-02-06T06:49:53.584Z,64.73
2023-02-06T06:52:25.456Z,96.20
2023-02-06T06:54:53.123Z,90.90
2023-02-06T06:57:20.938Z,91.37
2023-02-06T06:59:47.870Z,77.20
2023-02-06T07:02:15.257Z,66.50
2023-02-06T07:04:42.413Z,63.90
2023-02-06T07:07:10.234Z,84.40
2023-02-06T07:09:37.082Z,91.93
2023-02-06T07:12:04.571Z,107.43
2023-02-06T07:14:31.492Z,112.27
2023-02-06T07:16:59.999Z,133.50
2023-02-06T07:19:26.847Z,104.30
2023-02-06T07:21:54.166Z,80.30
2023-02-06T07:24:21.118Z,84.27
2023-02-06T07:26:47.980Z,69.33
2023-02-06T07:29:14.797Z,57.13
2023-02-06T07:31:41.890Z,50.17
2023-02-06T07:34:08.786Z,51.60
2023-02-06T07:36:35.823Z,54.50
2023-02-06T07:39:04.228Z,51.67
2023-02-06T07:41:31.047Z,51.80
2023-02-06T07:43:57.947Z,61.37
2023-02-06T07:46:24.893Z,54.67
2023-02-06T07:48:51.783Z,54.93
2023-02-06T07:51:18.715Z,52.23
2023-02-06T07:53:45.613Z,61.97
2023-02-06T07:56:15.035Z,58.90
2023-02-06T07:58:42.156Z,54.90
2023-02-06T08:01:09.503Z,54.37
2023-02-06T08:03:36.965Z,53.73
2023-02-06T08:06:11.993Z,51.20
2023-02-06T08:08:39.148Z,53.10
2023-02-06T08:11:10.879Z,52.53
2023-02-06T08:13:37.854Z,55.83
2023-02-06T08:16:11.546Z,51.23
2023-02-06T08:18:38.790Z,48.20
2023-02-06T08:21:08.157Z,51.63
2023-02-06T08:23:35.042Z,80.23
2023-02-06T08:26:07.727Z,83.90
2023-02-06T08:28:35.547Z,72.53
2023-02-06T08:31:20.697Z,68.40
2023-02-06T08:33:49.267Z,69.87
2023-02-06T08:36:17.824Z,89.97
2023-02-06T08:38:44.933Z,96.63
2023-02-06T08:41:24.687Z,90.43
2023-02-06T08:43:54.492Z,82.60
2023-02-06T08:46:24.615Z,63.60
2023-02-06T08:48:59.820Z,80.40
2023-02-06T08:51:35.319Z,81.60
2023-02-06T08:54:05.647Z,102.70
2023-02-06T08:56:34.459Z,92.53
2023-02-06T08:59:02.144Z,131.40
2023-02-06T09:01:31.549Z,250.40
2023-02-06T09:04:00.766Z,162.07
2023-02-06T09:06:28.702Z,372.93
2023-02-06T09:08:56.993Z,164.03
2023-02-06T09:11:25.768Z,125.67
2023-02-06T09:13:55.856Z,79.47
2023-02-06T09:16:23.428Z,83.90
2023-02-06T09:18:53.929Z,264.40
2023-02-06T09:21:24.294Z,74.37
2023-02-06T09:23:54.002Z,67.23
2023-02-06T09:26:23.895Z,201.50
2023-02-06T09:28:58.750Z,72.17
2023-02-06T09:31:27.281Z,130.50
2023-02-06T09:33:54.196Z,143.23
2023-02-06T09:36:22.161Z,160.90
2023-02-06T09:38:51.584Z,181.30
2023-02-06T09:41:22.711Z,105.97
2023-02-06T09:43:57.120Z,155.23
2023-02-06T09:46:29.209Z,179.90
2023-02-06T09:48:58.868Z,61.43
2023-02-06T09:51:57.028Z,39.27
2023-02-06T09:54:29.790Z,28.10
2023-02-06T09:57:08.081Z,27.60
2023-02-06T09:59:45.142Z,59.40
2023-02-06T10:02:39.792Z,27.90
2023-02-06T10:05:20.760Z,15.93
2023-02-06T10:08:10.495Z,16.77
2023-02-06T10:11:21.526Z,21.13
2023-02-06T10:13:50.702Z,72.20
2023-02-06T10:16:45.908Z,39.17
2023-02-06T10:19:37.002Z,42.20
2023-02-06T10:22:12.701Z,30.03
2023-02-06T10:24:57.727Z,21.93
2023-02-06T10:27:24.616Z,19.10
2023-02-06T10:29:51.507Z,86.50
2023-02-06T10:32:27.973Z,59.57
2023-02-06T10:35:18.544Z,59.10
2023-02-06T10:38:15.065Z,112.83
2023-02-06T10:40:56.109Z,65.13
2023-02-06T10:43:33.652Z,28.37
2023-02-06T10:46:05.618Z,114.27
2023-02-06T10:49:09.372Z,82.13
2023-02-06T10:51:42.522Z,245.17
2023-02-06T10:54:23.091Z,66.27
2023-02-06T10:56:52.459Z,39.43
2023-02-06T10:59:28.658Z,16.33
2023-02-06T11:02:12.677Z,30.53
2023-02-06T11:04:44.582Z,17.33
2023-02-06T11:07:38.011Z,14.97
2023-02-06T11:10:07.122Z,23.13
2023-02-06T11:12:41.490Z,30.93
2023-02-06T11:15:39.129Z,11.93
2023-02-06T11:18:08.634Z,47.27
2023-02-06T11:20:38.600Z,104.60
2023-02-06T11:23:16.405Z,61.07
2023-02-06T11:25:44.186Z,20.50
2023-02-06T11:28:18.279Z,16.37
2023-02-06T11:31:06.656Z,34.43
2023-02-06T11:33:41.689Z,23.63
2023-02-06T11:36:23.566Z,15.07
2023-02-06T11:39:02.372Z,24.13
2023-02-06T11:41:30.375Z,13.90
2023-02-06T11:44:06.746Z,55.00
2023-02-06T11:46:36.596Z,39.07
2023-02-06T11:49:20.566Z,28.53
2023-02-06T11:51:56.374Z,23.00
2023-02-06T11:54:32.215Z,15.40
2023-02-06T11:57:08.189Z,15.90
2023-02-06T11:59:54.008Z,13.43
2023-02-06T12:02:32.926Z,13.33
2023-02-06T12:05:11.130Z,83.13
2023-02-06T12:07:57.804Z,20.00
2023-02-06T12:10:26.623Z,36.63
2023-02-06T12:13:21.407Z,23.73
2023-02-06T12:15:53.540Z,24.50
2023-02-06T12:18:34.500Z,18.03
2023-02-06T12:21:24.726Z,21.17
2023-02-06T12:24:03.573Z,19.57
2023-02-06T12:26:35.344Z,29.90
2023-02-06T12:29:22.773Z,48.43
2023-02-06T12:31:53.896Z,18.80
2023-02-06T12:34:25.315Z,62.40
2023-02-06T12:37:14.399Z,20.90
2023-02-06T12:39:43.371Z,15.30
2023-02-06T12:42:28.336Z,14.27
2023-02-06T12:45:12.614Z,12.77
2023-02-06T12:47:49.438Z,17.87
2023-02-06T12:50:32.163Z,13.40
2023-02-06T12:53:13.538Z,12.00
2023-02-06T12:55:40.355Z,21.90
2023-02-06T12:58:28.168Z,12.63
2023-02-06T13:01:29.358Z,10.93
2023-02-06T13:04:04.672Z,13.07
2023-02-06T13:06:57.729Z,12.67
2023-02-06T13:09:35.082Z,14.70
2023-02-06T13:12:20.376Z,13.47
2023-02-06T13:14:51.417Z,14.07
2023-02-06T13:17:26.638Z,14.17
2023-02-06T13:20:17.136Z,10.80
2023-02-06T13:22:45.714Z,11.47
2023-02-06T13:25:30.900Z,11.80
2023-02-06T13:28:22.248Z,12.50
2023-02-06T13:30:59.144Z,11.37
2023-02-06T13:33:38.000Z,16.00
2023-02-06T13:36:10.135Z,28.80
2023-02-06T13:38:39.027Z,17.40
2023-02-06T13:41:14.764Z,30.23
2023-02-06T13:43:56.557Z,19.97
2023-02-06T13:46:33.433Z,13.57
2023-02-06T13:49:30.137Z,11.87
2023-02-06T13:52:00.063Z,11.43
2023-02-06T13:54:45.214Z,12.40
2023-02-06T13:57:25.382Z,13.13
2023-02-06T13:59:55.055Z,22.10
2023-02-06T14:02:30.296Z,13.07
2023-02-06T14:05:03.001Z,15.37
2023-02-06T14:07:50.435Z,11.80
2023-02-06T14:10:23.208Z,11.83
2023-02-06T14:12:50.025Z,21.87
2023-02-06T14:15:36.687Z,56.07
2023-02-06T14:18:32.793Z,124.07
2023-02-06T14:21:20.984Z,25.13
2023-02-06T14:24:08.768Z,31.90
2023-02-06T14:26:41.305Z,20.47
2023-02-06T14:29:44.334Z,15.80
2023-02-06T14:32:14.191Z,12.60
2023-02-06T14:34:49.559Z,10.53
2023-02-06T14:37:25.310Z,13.93
2023-02-06T14:39:57.408Z,19.17
2023-02-06T14:42:28.724Z,20.93
2023-02-06T14:45:01.275Z,41.97
2023-02-06T14:47:31.905Z,22.40
2023-02-06T14:50:00.770Z,22.93
2023-02-06T14:52:31.418Z,22.03
2023-02-06T14:54:58.581Z,16.20
2023-02-06T14:57:31.102Z,10.70
2023-02-06T15:00:01.510Z,10.33
2023-02-06T15:02:30.128Z,23.83
2023-02-06T15:04:58.506Z,29.23
2023-02-06T15:07:38.085Z,81.30
2023-02-06T15:10:15.362Z,12.03
2023-02-06T15:12:50.623Z,9.93
2023-02-06T15:15:20.341Z,9.83
2023-02-06T15:18:03.510Z,11.00
2023-02-06T15:20:43.288Z,7.93
2023-02-06T15:23:25.414Z,9.27
2023-02-06T15:26:10.837Z,8.07
2023-02-06T15:28:38.250Z,7.20
2023-02-06T15:31:15.067Z,6.80
2023-02-06T15:33:41.978Z,9.70
2023-02-06T15:36:39.725Z,10.73
2023-02-06T15:39:09.671Z,9.13
2023-02-06T15:41:37.468Z,10.23
2023-02-06T15:44:29.948Z,8.97
2023-02-06T15:46:58.040Z,10.13
2023-02-06T15:49:38.173Z,9.50
2023-02-06T15:52:05.798Z,13.90
2023-02-06T15:54:34.054Z,13.77
2023-02-06T15:57:28.469Z,14.23
2023-02-06T15:59:58.675Z,25.10
2023-02-06T16:02:36.942Z,22.50
2023-02-06T16:05:06.045Z,30.70
2023-02-06T16:07:36.089Z,65.87
2023-02-06T16:10:08.970Z,113.37
2023-02-06T16:12:42.380Z,130.47
2023-02-06T16:15:27.725Z,116.17
2023-02-06T16:17:55.370Z,94.60
2023-02-06T16:20:42.433Z,82.40
2023-02-06T16:23:51.188Z,84.33
2023-02-06T16:26:27.502Z,95.27
2023-02-06T16:29:02.103Z,87.73
2023-02-06T16:31:31.293Z,127.23
2023-02-06T16:34:05.545Z,102.67
2023-02-06T16:36:33.635Z,99.77
2023-02-06T16:39:04.432Z,82.57
2023-02-06T16:41:36.181Z,87.60
2023-02-06T16:44:04.934Z,98.93
2023-02-06T16:46:31.952Z,81.63
2023-02-06T16:48:59.949Z,70.10
2023-02-06T16:51:29.504Z,56.83
2023-02-06T16:53:57.388Z,67.63
2023-02-06T16:56:24.652Z,62.73
2023-02-06T16:58:51.574Z,65.17
2023-02-06T17:01:25.680Z,85.40
2023-02-06T17:03:53.371Z,75.33
2023-02-06T17:06:32.070Z,73.77
2023-02-06T17:09:03.495Z,72.70
2023-02-06T17:11:33.778Z,67.43
2023-02-06T17:14:00.700Z,71.87
2023-02-06T17:16:28.484Z,62.57
2023-02-06T17:18:56.652Z,60.03
2023-02-06T17:21:24.948Z,53.23
2023-02-06T17:23:52.168Z,54.57
2023-02-06T17:26:22.347Z,46.03
2023-02-06T17:28:49.584Z,48.57
2023-02-06T17:31:16.965Z,47.00
2023-02-06T17:33:43.876Z,37.17
2023-02-06T17:36:17.456Z,28.93
2023-02-06T17:38:44.636Z,25.87
2023-02-06T17:41:11.511Z,19.47
2023-02-06T17:43:38.355Z,12.40
2023-02-06T17:46:06.200Z,11.13
2023-02-06T17:48:36.709Z,14.00
2023-02-06T17:51:05.443Z,13.57
2023-02-06T17:53:32.381Z,33.67
2023-02-06T17:56:04.623Z,51.67
2023-02-06T17:58:31.898Z,102.83
2023-02-06T18:00:58.733Z,76.40
2023-02-06T18:03:25.667Z,81.37
2023-02-06T18:06:00.393Z,93.00
2023-02-06T18:08:28.731Z,91.43
2023-02-06T18:10:56.193Z,132.33
2023-02-06T18:13:24.533Z,192.20
2023-02-06T18:15:56.807Z,114.60
2023-02-06T18:18:24.826Z,97.23
2023-02-06T18:20:52.326Z,98.47
2023-02-06T18:23:19.571Z,97.90
2023-02-06T18:25:46.455Z,89.00
2023-02-06T18:28:14.927Z,58.80
2023-02-06T18:30:42.141Z,59.53
2023-02-06T18:33:09.459Z,91.97
2023-02-06T18:35:41.077Z,85.67
2023-02-06T18:38:10.004Z,117.27
2023-02-06T18:40:40.925Z,101.53
2023-02-06T18:43:08.413Z,123.10
2023-02-06T18:45:37.668Z,145.57
2023-02-06T18:48:07.233Z,99.07
2023-02-06T18:50:35.707Z,103.00
2023-02-06T18:53:02.797Z,94.27
2023-02-06T18:55:30.219Z,119.47
2023-02-06T18:57:57.174Z,115.97
2023-02-06T19:00:24.626Z,116.20
2023-02-06T19:02:51.528Z,110.53
2023-02-06T19:05:19.326Z,102.03
2023-02-06T19:07:51.495Z,92.83
2023-02-06T19:10:20.286Z,90.17
2023-02-06T19:12:47.923Z,81.07
2023-02-06T19:15:16.243Z,70.43
2023-02-06T19:17:43.505Z,74.40
2023-02-06T19:20:11.432Z,37.87
2023-02-06T19:22:38.814Z,26.97
2023-02-06T19:25:11.356Z,25.67
2023-02-06T19:27:39.468Z,18.07
2023-02-06T19:30:08.120Z,17.63
2023-02-06T19:32:35.618Z,19.67
2023-02-06T19:35:03.384Z,26.67
2023-02-06T19:37:30.422Z,22.60
2023-02-06T19:39:57.499Z,23.77
2023-02-06T19:42:24.630Z,21.53
2023-02-06T19:44:54.039Z,16.47
2023-02-06T19:47:21.384Z,14.40
2023-02-06T19:49:52.609Z,13.70
2023-02-06T19:52:19.926Z,14.07
2023-02-06T19:54:48.805Z,13.07
2023-02-06T19:57:16.170Z,13.23
2023-02-06T19:59:43.165Z,11.33
2023-02-06T20:02:14.716Z,11.77
2023-02-06T20:04:42.254Z,11.83
2023-02-06T20:07:09.184Z,11.63
2023-02-06T20:09:41.164Z,10.90
2023-02-06T20:12:10.691Z,9.43
2023-02-06T20:14:37.666Z,9.20
2023-02-06T20:17:05.660Z,9.50
2023-02-06T20:19:32.891Z,9.40
2023-02-06T20:22:00.819Z,8.93
2023-02-06T20:24:31.191Z,8.93
2023-02-06T20:27:01.653Z,8.57
2023-02-06T20:29:32.035Z,8.93
2023-02-06T20:31:59.624Z,10.13
2023-02-06T20:34:27.164Z,10.60
2023-02-06T20:36:55.536Z,10.77
2023-02-06T20:39:22.571Z,10.77
2023-02-06T20:41:50.400Z,11.60
2023-02-06T20:44:18.823Z,13.53
2023-02-06T20:46:46.268Z,15.93
2023-02-06T20:49:18.806Z,16.80
2023-02-06T20:51:46.098Z,18.90
2023-02-06T20:54:13.136Z,19.80
2023-02-06T20:56:40.790Z,20.70
2023-02-06T20:59:08.593Z,19.77
2023-02-06T21:01:35.578Z,18.37
2023-02-06T21:04:06.322Z,19.30
2023-02-06T21:06:35.164Z,22.63
2023-02-06T21:09:03.425Z,23.90
2023-02-06T21:11:45.311Z,22.00
2023-02-06T21:14:12.914Z,22.17
2023-02-06T21:16:40.576Z,22.90
2023-02-06T21:19:09.996Z,23.10
2023-02-06T21:21:37.879Z,24.70
2023-02-06T21:24:05.747Z,25.23
2023-02-06T21:26:33.405Z,32.23
2023-02-06T21:29:02.451Z,44.60
2023-02-06T21:31:37.468Z,38.20
2023-02-06T21:34:09.160Z,43.87
2023-02-06T21:36:37.986Z,49.33
2023-02-06T21:39:06.225Z,57.87
2023-02-06T21:41:33.467Z,82.00
2023-02-06T21:44:00.500Z,71.03
2023-02-06T21:46:30.900Z,59.93
2023-02-06T21:48:58.734Z,66.77
2023-02-06T21:51:25.948Z,60.80
2023-02-06T21:53:53.048Z,61.97
2023-02-06T21:56:29.787Z,56.03
2023-02-06T21:58:57.741Z,52.73
2023-02-06T22:01:30.026Z,58.40
2023-02-06T22:03:58.174Z,55.33
2023-02-06T22:06:26.074Z,62.13
2023-02-06T22:08:54.391Z,71.37
2023-02-06T22:11:29.668Z,64.10
2023-02-06T22:14:01.996Z,63.77
2023-02-06T22:16:29.266Z,76.27
2023-02-06T22:18:57.086Z,102.67
2023-02-06T22:21:26.441Z,117.23
2023-02-06T22:23:56.811Z,108.70
2023-02-06T22:26:24.280Z,108.43
2023-02-06T22:28:51.265Z,102.13
2023-02-06T22:31:18.149Z,100.03
2023-02-06T22:33:45.982Z,89.53
2023-02-06T22:36:19.057Z,86.93
2023-02-06T22:38:46.924Z,77.00
2023-02-06T22:41:16.678Z,71.63
2023-02-06T22:43:45.176Z,72.27
2023-02-06T22:46:37.668Z,67.77
2023-02-06T22:49:05.922Z,73.53
2023-02-06T22:51:33.430Z,102.67
2023-02-06T22:54:00.753Z,97.73
2023-02-06T22:56:37.298Z,87.70
2023-02-06T22:59:19.515Z,90.00
2023-02-06T23:01:51.889Z,88.63
2023-02-06T23:04:28.396Z,98.80
2023-02-06T23:06:55.654Z,94.37
2023-02-06T23:09:25.678Z,99.17
2023-02-06T23:11:53.617Z,92.83
2023-02-06T23:14:20.903Z,95.00
2023-02-06T23:16:48.004Z,95.50
2023-02-06T23:19:15.958Z,81.60
2023-02-06T23:21:43.927Z,76.53
2023-02-06T23:24:11.467Z,81.00
2023-02-06T23:26:42.298Z,94.47
2023-02-06T23:29:10.482Z,96.80
2023-02-06T23:31:37.588Z,88.60
2023-02-06T23:34:04.461Z,87.37
2023-02-06T23:36:31.444Z,84.93
2023-02-06T23:39:01.278Z,89.43
2023-02-06T23:41:28.974Z,78.77
2023-02-06T23:43:57.985Z,83.63
2023-02-06T23:46:26.048Z,81.03
2023-02-06T23:48:53.251Z,83.03
2023-02-06T23:51:21.248Z,85.83
2023-02-06T23:53:49.023Z,83.30
2023-02-06T23:56:19.415Z,81.53
2023-02-06T23:58:46.537Z,82.03
